Time;durP1;ratioP1;P1;durP2;ratioP2;P2;SDS_P1;SDS_P2;PMS_P1;PMS_P2;Temp;Humidity;BMP_temperature;BMP_pressure;BME280_temperature;BME280_humidity;BME280_pressure;Samples;Min_cycle;Max_cycle;Signal;HPM_P1;HPM_P2
2023/10/20 00:01:06;;;;;;;10.90;7.75;;;;;;;13.58;82.14;94082.53;5016758;28;20124;-80
2023/10/20 00:03:34;;;;;;;9.98;7.85;;;;;;;13.57;82.05;94063.41;5016148;28;20050;-80
2023/10/20 00:06:04;;;;;;;10.02;7.57;;;;;;;13.56;81.90;94061.84;5015597;28;20054;-80
2023/10/20 00:08:32;;;;;;;8.70;7.80;;;;;;;13.57;82.20;94060.00;5015557;28;20057;-80
2023/10/20 00:11:03;;;;;;;10.15;8.05;;;;;;;13.56;82.06;94064.47;5015436;28;20060;-80
2023/10/20 00:13:33;;;;;;;9.43;8.07;;;;;;;13.54;82.08;94057.91;5015233;28;20046;-80
2023/10/20 00:16:01;;;;;;;11.55;8.20;;;;;;;13.55;82.01;94049.78;5015318;28;20166;-80
2023/10/20 00:18:28;;;;;;;10.85;7.28;;;;;;;13.56;81.75;94056.59;5015549;28;20050;-80
2023/10/20 00:20:56;;;;;;;8.95;7.22;;;;;;;13.58;81.48;94057.13;5015505;28;20112;-80
2023/10/20 00:23:25;;;;;;;10.40;7.22;;;;;;;13.60;81.45;94068.13;5015321;28;20484;-80
2023/10/20 00:25:52;;;;;;;11.18;7.40;;;;;;;13.63;81.18;94055.56;5015482;28;20053;-81
2023/10/20 00:28:20;;;;;;;10.57;6.75;;;;;;;13.65;81.58;94056.09;5015524;28;20061;-80
2023/10/20 00:30:48;;;;;;;7.22;6.38;;;;;;;13.68;81.28;94039.81;5015491;28;20137;-80
2023/10/20 00:33:15;;;;;;;10.35;7.70;;;;;;;13.67;81.11;94033.81;5014921;28;20045;-80
2023/10/20 00:35:43;;;;;;;8.75;7.40;;;;;;;13.67;81.44;94031.19;5014794;28;20050;-80
2023/10/20 00:38:11;;;;;;;7.95;6.93;;;;;;;13.68;81.09;94019.66;5014922;28;20081;-80
2023/10/20 00:40:46;;;;;;;11.32;6.60;;;;;;;13.70;80.82;94014.16;5015479;28;20091;-80
2023/10/20 00:43:14;;;;;;;7.65;6.47;;;;;;;13.71;80.58;94010.47;5014873;28;20113;-80
2023/10/20 00:45:45;;;;;;;9.93;7.25;;;;;;;13.73;80.42;94005.75;5014597;28;20501;-81
2023/10/20 00:48:13;;;;;;;7.30;6.45;;;;;;;13.76;80.28;94010.47;5014649;28;20054;-80
2023/10/20 00:50:41;;;;;;;8.40;6.55;;;;;;;13.76;79.90;93995.53;5014843;28;20501;-80
2023/10/20 00:53:10;;;;;;;7.95;6.43;;;;;;;13.78;79.93;93992.66;5014931;28;20104;-80
2023/10/20 00:55:37;;;;;;;8.38;6.80;;;;;;;13.79;79.81;93986.38;5014545;28;20049;-80
2023/10/20 00:58:08;;;;;;;6.60;6.00;;;;;;;13.81;79.68;93992.13;5014355;28;20049;-80
2023/10/20 01:00:35;;;;;;;7.28;6.35;;;;;;;13.84;80.23;93994.22;5014832;28;20134;-80
2023/10/20 01:03:04;;;;;;;8.57;6.55;;;;;;;13.86;80.04;93994.72;5014640;28;20057;-80
2023/10/20 01:05:32;;;;;;;7.20;6.50;;;;;;;13.86;80.12;93999.97;5022459;28;20468;-81
2023/10/20 01:08:00;;;;;;;11.60;6.90;;;;;;;13.88;79.93;93997.09;5033506;28;20060;-81
2023/10/20 01:10:28;;;;;;;14.93;7.10;;;;;;;13.89;79.78;93999.44;5033516;28;20046;-79
2023/10/20 01:12:55;;;;;;;8.52;6.55;;;;;;;13.90;79.72;94000.22;5024984;28;20045;-79
2023/10/20 01:15:24;;;;;;;6.65;5.95;;;;;;;13.89;79.83;93998.66;5015446;28;20058;-80
2023/10/20 01:17:52;;;;;;;7.25;6.18;;;;;;;13.90;79.61;93995.75;5016283;28;20217;-80
2023/10/20 01:20:20;;;;;;;8.45;6.65;;;;;;;13.90;79.80;93984.50;5018436;28;20056;-80
2023/10/20 01:22:47;;;;;;;9.02;6.30;;;;;;;13.90;79.80;93993.16;5016015;28;20046;-80
2023/10/20 01:25:16;;;;;;;9.25;6.57;;;;;;;13.91;79.73;93988.72;5015099;28;20092;-80
2023/10/20 01:27:44;;;;;;;11.32;6.05;;;;;;;13.92;79.77;93988.41;5015115;28;20395;-80
2023/10/20 01:30:12;;;;;;;8.73;6.22;;;;;;;13.94;79.70;93977.69;5014656;28;20064;-80
2023/10/20 01:32:41;;;;;;;10.23;6.97;;;;;;;13.94;79.66;93970.59;5014253;28;20406;-80
2023/10/20 01:35:09;;;;;;;8.80;6.30;;;;;;;13.94;80.00;93965.34;5013810;28;20512;-80
2023/10/20 01:37:37;;;;;;;8.20;5.93;;;;;;;13.96;80.04;93962.47;5013831;28;20054;-80
2023/10/20 01:40:07;;;;;;;14.27;7.53;;;;;;;13.95;79.68;93959.09;5013892;28;20588;-80
2023/10/20 01:42:36;;;;;;;7.35;6.00;;;;;;;13.94;79.92;93957.50;5013708;28;20089;-80
2023/10/20 01:45:05;;;;;;;9.65;6.63;;;;;;;13.94;79.52;93956.72;5013618;28;20136;-80
2023/10/20 01:47:32;;;;;;;7.13;6.25;;;;;;;13.94;79.44;93954.09;5030369;28;20050;-79
2023/10/20 01:50:01;;;;;;;8.05;6.22;;;;;;;13.94;79.44;93944.41;5034140;28;20042;-80
2023/10/20 01:52:28;;;;;;;8.18;5.85;;;;;;;13.94;79.16;93935.75;5031031;28;20053;-80
2023/10/20 01:54:56;;;;;;;8.02;6.50;;;;;;;13.94;78.84;93935.75;5014987;28;20076;-80
2023/10/20 01:57:24;;;;;;;8.50;5.95;;;;;;;13.94;78.79;93922.66;5014878;28;20096;-80
2023/10/20 01:59:52;;;;;;;11.45;6.75;;;;;;;13.93;78.47;93921.88;5014056;28;20045;-80
2023/10/20 02:02:20;;;;;;;8.40;7.00;;;;;;;13.93;78.47;93900.91;5014035;28;20384;-80
2023/10/20 02:04:48;;;;;;;7.85;6.00;;;;;;;13.92;77.92;93899.31;5015504;28;20054;-80
2023/10/20 02:07:16;;;;;;;6.43;5.60;;;;;;;13.92;77.81;93883.59;5029006;28;20076;-80
2023/10/20 02:09:43;;;;;;;9.70;5.80;;;;;;;13.93;78.14;93874.69;5026326;28;20133;-80
2023/10/20 02:12:11;;;;;;;5.35;4.85;;;;;;;13.95;77.48;93862.13;5013049;28;20060;-80
2023/10/20 02:14:38;;;;;;;6.20;5.50;;;;;;;13.97;77.67;93862.63;5012966;28;20493;-79
2023/10/20 02:17:08;;;;;;;8.80;6.10;;;;;;;14.00;77.51;93850.81;5013449;28;20120;-80
2023/10/20 02:19:36;;;;;;;5.95;5.40;;;;;;;14.01;77.42;93844.50;5013642;28;20056;-80
2023/10/20 02:22:04;;;;;;;8.70;7.40;;;;;;;14.04;77.08;93837.94;5013354;28;20085;-80
2023/10/20 02:24:32;;;;;;;9.23;7.88;;;;;;;14.03;76.69;93826.69;5013263;28;20132;-80
2023/10/20 02:27:00;;;;;;;9.20;6.68;;;;;;;14.03;76.67;93826.69;5013454;28;20057;-80
2023/10/20 02:29:27;;;;;;;9.93;7.03;;;;;;;14.05;76.36;93823.78;5013280;28;20089;-80
2023/10/20 02:31:55;;;;;;;11.00;7.68;;;;;;;14.05;76.32;93802.81;5013069;28;20065;-79
2023/10/20 02:34:24;;;;;;;9.85;8.43;;;;;;;14.06;76.00;93801.75;5012997;28;20050;-80
2023/10/20 02:36:52;;;;;;;12.25;8.75;;;;;;;14.05;75.94;93790.50;5012806;28;20424;-80
2023/10/20 02:39:20;;;;;;;11.25;8.80;;;;;;;14.05;76.01;93776.63;5013266;28;20141;-80
2023/10/20 02:41:47;;;;;;;10.15;9.07;;;;;;;14.04;75.90;93775.84;5013675;28;20524;-80
2023/10/20 02:44:15;;;;;;;11.48;9.25;;;;;;;14.04;75.76;93756.69;5013091;28;20128;-79
2023/10/20 02:46:43;;;;;;;10.93;8.82;;;;;;;14.01;75.02;93761.44;5012745;28;20053;-80
2023/10/20 02:49:11;;;;;;;9.50;8.50;;;;;;;14.01;74.36;93752.78;5012484;28;20050;-80
2023/10/20 02:51:40;;;;;;;9.38;8.45;;;;;;;14.01;73.93;93758.03;5012973;28;20479;-80
2023/10/20 02:54:09;;;;;;;12.00;9.80;;;;;;;14.01;75.03;93766.69;5012987;28;20420;-80
2023/10/20 02:56:37;;;;;;;9.80;8.85;;;;;;;14.01;74.61;93777.19;5012728;28;20139;-80
2023/10/20 02:59:05;;;;;;;11.40;10.20;;;;;;;14.01;75.23;93776.38;5012769;28;20063;-80
2023/10/20 03:01:33;;;;;;;12.10;9.85;;;;;;;13.99;74.52;93768.78;5012505;28;20054;-80
2023/10/20 03:04:01;;;;;;;11.27;9.73;;;;;;;13.98;74.55;93775.06;5012697;28;20056;-80
2023/10/20 03:06:28;;;;;;;15.55;9.95;;;;;;;13.98;74.27;93776.94;5012783;28;20050;-80
2023/10/20 03:08:57;;;;;;;13.18;10.40;;;;;;;13.95;73.87;93783.50;5012740;28;20046;-80
2023/10/20 03:11:25;;;;;;;14.25;11.68;;;;;;;13.94;73.90;93771.44;5012527;28;20577;-80
2023/10/20 03:13:52;;;;;;;13.73;10.98;;;;;;;13.92;74.11;93757.81;5012322;28;20054;-81
2023/10/20 03:16:21;;;;;;;11.02;9.73;;;;;;;13.91;73.66;93742.38;5012370;28;20114;-80
2023/10/20 03:18:48;;;;;;;11.98;9.60;;;;;;;13.91;73.52;93745.00;5012645;28;20513;-80
2023/10/20 03:21:18;;;;;;;12.00;9.88;;;;;;;13.91;72.74;93731.91;5013509;28;20046;-80
2023/10/20 03:23:45;;;;;;;9.50;8.27;;;;;;;13.88;72.21;93735.81;5016708;28;20220;-80
2023/10/20 03:26:14;;;;;;;11.75;9.02;;;;;;;13.86;71.47;93748.41;5016293;28;20097;-80
2023/10/20 03:28:43;;;;;;;12.75;9.35;;;;;;;13.87;71.90;93759.69;5018448;28;20472;-79
2023/10/20 03:31:11;;;;;;;13.43;9.82;;;;;;;13.87;72.53;93776.19;5037038;28;20057;-80
2023/10/20 03:33:39;;;;;;;12.57;11.27;;;;;;;13.84;73.17;93770.72;5027827;28;20068;-80
2023/10/20 03:36:06;;;;;;;12.00;10.20;;;;;;;13.81;72.54;93761.56;5016206;28;20528;-80
2023/10/20 03:38:34;;;;;;;12.68;9.82;;;;;;;13.78;72.40;93756.88;5016072;28;20056;-79
2023/10/20 03:41:06;;;;;;;13.25;9.73;;;;;;;13.74;72.14;93763.69;5016146;28;20239;-79
2023/10/20 03:43:36;;;;;;;11.88;10.18;;;;;;;13.70;72.63;93746.97;5016351;28;20050;-80
2023/10/20 03:46:04;;;;;;;9.93;8.82;;;;;;;13.66;72.25;93751.94;5015898;28;20468;-80
2023/10/20 03:48:34;;;;;;;11.07;9.32;;;;;;;13.63;73.08;93744.63;5016166;28;20521;-80
2023/10/20 03:51:05;;;;;;;10.15;8.93;;;;;;;13.61;72.66;93731.03;5016000;28;20058;-80
2023/10/20 03:53:41;;;;;;;10.77;9.45;;;;;;;13.58;72.82;93715.88;5016310;28;20054;-80
2023/10/20 03:56:09;;;;;;;10.75;9.63;;;;;;;13.55;73.22;93717.16;5017911;28;20042;-80
2023/10/20 03:58:38;;;;;;;14.80;11.15;;;;;;;13.52;73.83;93707.25;5016843;28;20423;-80
2023/10/20 04:01:07;;;;;;;12.98;10.35;;;;;;;13.50;73.96;93701.50;5016409;28;20073;-79
2023/10/20 04:03:34;;;;;;;11.45;9.75;;;;;;;13.47;74.25;93699.44;5016650;28;20050;-80
2023/10/20 04:06:06;;;;;;;11.98;10.48;;;;;;;13.46;74.87;93695.22;5015922;28;20557;-78
2023/10/20 04:08:34;;;;;;;12.30;10.05;;;;;;;13.45;74.89;93685.81;5015732;28;20057;-80
2023/10/20 04:11:01;;;;;;;13.45;9.60;;;;;;;13.46;75.32;93671.66;5016093;28;20050;-80
2023/10/20 04:13:31;;;;;;;13.88;10.57;;;;;;;13.45;75.40;93667.50;5015776;28;20054;-80
2023/10/20 04:16:11;;;;;;;11.32;9.30;;;;;;;13.42;75.62;93649.69;5015364;28;20054;-80
2023/10/20 04:18:40;;;;;;;12.18;10.25;;;;;;;13.41;75.97;93635.03;5015778;28;20112;-82
2023/10/20 04:21:08;;;;;;;11.95;10.20;;;;;;;13.42;75.78;93628.75;5015712;28;20399;-80
2023/10/20 04:23:36;;;;;;;13.05;10.40;;;;;;;13.41;75.95;93613.31;5018820;28;20565;-80
2023/10/20 04:26:05;;;;;;;14.27;10.65;;;;;;;13.40;76.19;93609.91;5016642;28;20462;-81
2023/10/20 04:28:36;;;;;;;12.65;10.43;;;;;;;13.41;76.25;93595.78;5016095;28;20108;-80
2023/10/20 04:45:15;;;;;;;17.60;12.35;;;;;;;13.34;76.72;93579.59;4995294;28;20062;-82
2023/10/20 04:53:40;;;;;;;13.63;10.27;;;;;;;13.32;77.87;93558.91;4992528;28;20053;-81
2023/10/20 04:58:58;;;;;;;15.20;10.65;;;;;;;13.29;77.12;93535.13;5021570;28;20081;-81
2023/10/20 05:01:30;;;;;;;15.15;11.07;;;;;;;13.31;77.15;93528.53;5017347;28;20521;-81
2023/10/20 05:04:09;;;;;;;11.43;10.10;;;;;;;13.33;78.18;93521.19;4999587;28;20078;-79
2023/10/20 05:06:42;;;;;;;13.02;10.55;;;;;;;13.33;78.77;93510.72;4998788;28;20042;-80
2023/10/20 05:09:13;;;;;;;11.52;10.15;;;;;;;13.34;78.07;93519.38;5014971;28;20133;-80
2023/10/20 05:11:41;;;;;;;12.25;10.05;;;;;;;13.34;77.76;93519.38;5014837;28;20054;-80
2023/10/20 05:14:09;;;;;;;12.70;10.45;;;;;;;13.33;76.88;93505.50;5013711;28;20849;-79
2023/10/20 05:16:37;;;;;;;14.20;10.93;;;;;;;13.32;76.61;93498.72;5014736;28;20042;-81
2023/10/20 05:19:06;;;;;;;14.15;10.30;;;;;;;13.34;76.26;93490.59;5014458;28;20042;-81
2023/10/20 05:21:34;;;;;;;16.38;11.30;;;;;;;13.35;76.21;93468.56;5016883;28;20052;-79
2023/10/20 05:24:04;;;;;;;14.40;12.18;;;;;;;13.32;76.68;93469.91;5015272;28;20449;-79
2023/10/20 05:26:32;;;;;;;14.88;12.23;;;;;;;13.32;76.96;93469.13;5013929;28;20524;-81
2023/10/20 05:29:01;;;;;;;15.95;12.90;;;;;;;13.28;76.66;93465.47;5015002;28;20037;-79
2023/10/20 05:31:29;;;;;;;18.50;14.27;;;;;;;13.30;76.63;93460.78;5013067;28;20050;-80
2023/10/20 05:33:57;;;;;;;15.68;13.10;;;;;;;13.28;76.74;93439.31;5012155;28;20381;-80
2023/10/20 05:36:26;;;;;;;17.52;14.68;;;;;;;13.27;76.56;93437.72;5012302;28;20084;-80
2023/10/20 05:38:54;;;;;;;18.92;15.25;;;;;;;13.26;77.34;93442.19;5012043;28;20077;-80
2023/10/20 05:41:21;;;;;;;18.40;14.93;;;;;;;13.26;77.32;93421.25;5019742;28;20076;-79
2023/10/20 05:43:52;;;;;;;19.10;15.27;;;;;;;13.25;77.57;93422.31;5030675;28;20042;-78
2023/10/20 05:46:21;;;;;;;17.73;15.80;;;;;;;13.23;77.11;93419.19;5030633;28;20038;-79
2023/10/20 05:48:49;;;;;;;23.92;15.93;;;;;;;13.22;77.35;93424.69;5026127;28;20116;-80
2023/10/20 05:51:16;;;;;;;17.33;15.40;;;;;;;13.18;77.84;93417.41;5014331;28;20049;-80
2023/10/20 05:53:45;;;;;;;21.20;15.55;;;;;;;13.16;77.72;93406.44;5028166;28;20065;-80
2023/10/20 05:56:13;;;;;;;19.45;15.35;;;;;;;13.16;77.96;93401.19;5033952;28;20045;-80
2023/10/20 05:58:40;;;;;;;17.42;14.88;;;;;;;13.17;77.87;93394.13;5032406;28;20046;-81
2023/10/20 06:01:09;;;;;;;17.13;14.25;;;;;;;13.18;77.68;93388.63;5015460;28;20113;-80
2023/10/20 06:03:37;;;;;;;18.20;14.23;;;;;;;13.20;77.62;93383.09;5016119;28;20050;-80
2023/10/20 06:06:05;;;;;;;19.00;13.93;;;;;;;13.19;77.11;93374.47;5018643;28;20061;-80
2023/10/20 06:08:33;;;;;;;19.00;14.40;;;;;;;13.22;77.16;93356.66;5014723;28;20156;-80
2023/10/20 06:11:03;;;;;;;15.50;12.15;;;;;;;13.24;77.15;93338.81;5013935;28;20046;-80
2023/10/20 06:13:32;;;;;;;13.73;11.73;;;;;;;13.28;76.94;93339.84;5013312;28;20046;-80
2023/10/20 06:16:08;;;;;;;14.73;11.00;;;;;;;13.31;77.21;93328.81;5013380;28;20046;-80
2023/10/20 06:18:36;;;;;;;16.77;13.38;;;;;;;13.35;77.37;93308.88;5013957;28;20064;-79
2023/10/20 06:21:05;;;;;;;16.98;13.77;;;;;;;13.37;77.34;93291.06;5013682;28;20056;-79
2023/10/20 06:23:33;;;;;;;19.38;14.98;;;;;;;13.39;77.46;93278.47;5013079;28;20579;-80
2023/10/20 06:26:00;;;;;;;19.67;14.93;;;;;;;13.40;77.34;93259.09;5012940;28;20096;-80
2023/10/20 06:28:29;;;;;;;27.33;18.83;;;;;;;13.39;76.88;93241.81;5013529;28;20498;-80
2023/10/20 06:31:00;;;;;;;20.63;15.43;;;;;;;13.39;77.07;93252.31;5013614;28;20420;-80
2023/10/20 06:33:32;;;;;;;21.98;16.48;;;;;;;13.42;77.02;93262.19;5013377;28;20092;-80
2023/10/20 06:36:08;;;;;;;112.07;86.53;;;;;;;13.42;77.23;93251.72;5013112;28;20049;-79
2023/10/20 06:38:44;;;;;;;28.75;22.42;;;;;;;13.43;77.29;93248.06;5013168;28;20283;-79
2023/10/20 06:41:14;;;;;;;18.88;15.50;;;;;;;13.44;76.99;93235.75;5013241;28;20056;-79
2023/10/20 06:43:44;;;;;;;19.30;15.40;;;;;;;13.45;76.88;93232.09;5013144;28;20053;-80
2023/10/20 06:46:11;;;;;;;16.73;14.48;;;;;;;13.46;76.67;93223.94;5013635;28;20049;-80
2023/10/20 06:48:39;;;;;;;16.83;14.48;;;;;;;13.48;77.38;93216.56;5032840;28;20037;-79
2023/10/20 06:51:06;;;;;;;14.98;12.80;;;;;;;13.51;76.98;93223.88;5035845;28;20061;-79
2023/10/20 06:53:35;;;;;;;13.93;12.43;;;;;;;13.56;76.60;93204.69;5035518;28;20092;-79
2023/10/20 06:56:05;;;;;;;14.25;11.88;;;;;;;13.60;76.23;93188.13;5023341;28;20088;-80
2023/10/20 06:58:44;;;;;;;16.77;13.07;;;;;;;13.65;76.16;93196.97;5016390;28;20053;-80
2023/10/20 07:01:12;;;;;;;58.58;39.50;;;;;;;13.70;76.55;93199.53;5015032;28;20052;-80
2023/10/20 07:03:40;;;;;;;17.85;15.57;;;;;;;13.75;76.36;93207.28;5014112;28;20060;-80
2023/10/20 07:06:10;;;;;;;14.15;11.65;;;;;;;13.78;75.51;93198.88;5013104;28;20061;-79
2023/10/20 07:08:39;;;;;;;14.10;12.57;;;;;;;13.80;75.40;93187.06;5013694;28;20050;-79
2023/10/20 07:11:07;;;;;;;12.48;10.30;;;;;;;13.81;74.68;93167.63;5013072;28;20053;-80
2023/10/20 07:13:35;;;;;;;11.20;9.82;;;;;;;13.84;74.61;93168.94;5012673;28;20061;-80
2023/10/20 07:16:04;;;;;;;14.88;10.38;;;;;;;13.87;74.59;93152.63;5012941;28;20056;-79
2023/10/20 07:18:32;;;;;;;11.10;9.50;;;;;;;13.90;74.07;93151.28;5012422;28;20100;-80
2023/10/20 07:21:00;;;;;;;11.85;9.38;;;;;;;13.93;73.89;93146.25;5013015;28;20085;-80
2023/10/20 07:23:27;;;;;;;10.45;9.05;;;;;;;13.96;73.87;93150.91;5012811;28;20045;-80
2023/10/20 07:25:55;;;;;;;10.48;9.35;;;;;;;13.99;74.66;93132.00;5012879;28;20616;-80
2023/10/20 07:28:23;;;;;;;11.48;10.07;;;;;;;14.00;73.49;93130.94;5015315;28;20569;-80
2023/10/20 07:30:50;;;;;;;13.85;9.98;;;;;;;14.02;73.64;93128.81;5014375;28;20136;-80
2023/10/20 07:33:19;;;;;;;11.98;9.90;;;;;;;14.05;73.21;93129.28;5013791;28;20052;-80
2023/10/20 07:35:47;;;;;;;11.75;9.73;;;;;;;14.08;73.04;93134.75;5013305;28;20052;-80
2023/10/20 07:38:15;;;;;;;11.10;9.98;;;;;;;14.10;73.37;93123.94;5014017;28;20464;-79
2023/10/20 07:40:43;;;;;;;14.60;10.50;;;;;;;14.11;72.76;93136.78;5012931;28;20053;-80
2023/10/20 07:43:11;;;;;;;13.00;10.73;;;;;;;14.09;73.19;93133.66;5013255;28;20049;-80
2023/10/20 07:45:40;;;;;;;13.95;11.32;;;;;;;14.07;72.85;93145.50;5012673;28;20049;-80
2023/10/20 07:48:08;;;;;;;13.02;10.82;;;;;;;14.06;72.89;93159.66;5012515;28;20046;-80
2023/10/20 07:50:37;;;;;;;18.08;11.98;;;;;;;14.06;72.96;93159.66;5018532;28;20057;-80
2023/10/20 07:53:05;;;;;;;203.70;70.85;;;;;;;14.04;72.72;93141.63;5031295;28;20050;-79
2023/10/20 07:55:33;;;;;;;19.65;12.82;;;;;;;14.01;72.53;93136.94;5030763;28;20085;-79
2023/10/20 07:58:00;;;;;;;15.82;12.65;;;;;;;13.99;72.56;93137.25;5016856;28;20489;-80
2023/10/20 08:00:29;;;;;;;14.57;12.65;;;;;;;14.00;72.81;93141.41;5012824;28;20140;-80
2023/10/20 08:02:57;;;;;;;17.25;13.13;;;;;;;14.02;72.81;93139.28;5013099;28;20415;-80
2023/10/20 08:05:25;;;;;;;21.27;11.52;;;;;;;14.07;72.39;93145.50;5011932;28;20046;-80
2023/10/20 08:07:58;;;;;;;14.63;12.07;;;;;;;14.10;72.89;93142.28;5012188;28;20154;-80
2023/10/20 08:10:25;;;;;;;16.17;11.27;;;;;;;14.12;72.39;93156.66;5015800;28;20056;-80
2023/10/20 08:12:53;;;;;;;11.95;10.70;;;;;;;14.16;72.44;93141.91;5015902;28;20585;-80
2023/10/20 08:15:21;;;;;;;15.90;11.90;;;;;;;14.22;72.38;93135.53;5015399;28;20056;-79
2023/10/20 08:17:51;;;;;;;15.40;12.20;;;;;;;14.27;72.09;93145.16;5015841;28;20054;-79
2023/10/20 08:20:19;;;;;;;12.93;10.82;;;;;;;14.30;71.63;93141.16;5015712;28;20149;-80
2023/10/20 08:22:47;;;;;;;14.52;12.32;;;;;;;14.32;71.55;93141.66;5015490;28;20100;-80
2023/10/20 08:25:16;;;;;;;13.70;11.82;;;;;;;14.35;71.86;93138.47;5015611;28;20121;-78
2023/10/20 08:27:46;;;;;;;14.48;11.70;;;;;;;14.39;72.31;93152.56;5015453;28;20088;-80
2023/10/20 08:30:15;;;;;;;15.80;12.93;;;;;;;14.41;72.71;93148.56;5015385;28;20049;-80
2023/10/20 08:32:43;;;;;;;16.02;13.35;;;;;;;14.43;71.91;93146.44;5015371;28;20053;-80
2023/10/20 08:35:11;;;;;;;16.15;13.60;;;;;;;14.47;72.25;93145.84;5015009;28;20168;-80
2023/10/20 08:37:39;;;;;;;17.75;14.48;;;;;;;14.51;71.70;93147.59;5015344;28;20046;-80
2023/10/20 08:40:10;;;;;;;17.55;12.98;;;;;;;14.55;71.62;93161.72;5015527;28;20134;-81
2023/10/20 08:42:39;;;;;;;17.80;14.07;;;;;;;14.57;71.31;93153.56;5015572;28;20054;-80
2023/10/20 08:45:08;;;;;;;19.38;13.48;;;;;;;14.57;71.54;93154.34;5014885;28;20073;-80
2023/10/20 08:47:36;;;;;;;15.95;13.50;;;;;;;14.70;71.18;93137.06;5014718;28;20149;-80
2023/10/20 08:50:07;;;;;;;14.07;12.57;;;;;;;15.03;70.36;93150.81;5015398;28;20149;-80
2023/10/20 08:52:36;;;;;;;16.40;12.48;;;;;;;15.01;69.62;93152.19;5015171;28;20049;-80
2023/10/20 08:55:07;;;;;;;15.43;13.75;;;;;;;14.91;70.42;93155.81;5015206;28;20053;-80
2023/10/20 08:57:35;;;;;;;17.10;14.55;;;;;;;14.81;70.09;93148.13;5014691;28;20085;-80
2023/10/20 09:00:07;;;;;;;16.65;13.75;;;;;;;14.71;70.51;93151.72;5015130;28;20478;-80
2023/10/20 09:02:38;;;;;;;17.40;14.20;;;;;;;14.62;70.79;93158.72;5015371;28;20054;-80
2023/10/20 09:05:06;;;;;;;18.55;14.60;;;;;;;14.54;71.07;93167.22;5014537;28;20057;-79
2023/10/20 09:07:34;;;;;;;18.88;14.10;;;;;;;14.48;71.08;93156.06;5014566;28;20056;-80
2023/10/20 09:10:02;;;;;;;17.88;14.60;;;;;;;14.46;71.61;93168.69;5014658;28;20077;-80
2023/10/20 09:12:32;;;;;;;17.08;15.07;;;;;;;14.42;72.03;93172.94;5015249;28;20077;-80
2023/10/20 09:15:00;;;;;;;21.08;15.63;;;;;;;14.39;72.09;93147.31;5014663;28;20054;-79
2023/10/20 09:17:33;;;;;;;18.58;15.77;;;;;;;14.35;71.84;93152.34;5014647;28;20042;-80
2023/10/20 09:20:06;;;;;;;19.05;16.77;;;;;;;14.34;71.51;93165.75;5014466;28;20144;-80
2023/10/20 09:22:34;;;;;;;;;;;;;;;14.33;71.48;93156.34;5014839;28;20054;-79
2023/10/20 09:25:02;;;;;;;20.45;17.23;;;;;;;14.29;71.86;93173.69;5014123;28;19928;-80
2023/10/20 09:27:30;;;;;;;20.80;17.25;;;;;;;14.25;71.58;93170.09;5014372;28;20054;-79
2023/10/20 09:29:59;;;;;;;19.88;17.52;;;;;;;14.23;71.66;93186.09;5014365;28;20054;-80
2023/10/20 09:32:27;;;;;;;22.95;18.58;;;;;;;14.20;71.87;93181.44;5014516;28;20046;-79
2023/10/20 09:34:56;;;;;;;21.58;18.48;;;;;;;14.16;72.41;93201.44;5013883;28;20050;-80
2023/10/20 09:37:29;;;;;;;22.83;17.67;;;;;;;14.13;72.36;93194.16;5014284;28;20054;-80
2023/10/20 09:40:05;;;;;;;25.95;19.83;;;;;;;14.08;73.11;93195.03;5014174;28;20582;-80
2023/10/20 09:42:43;;;;;;;22.13;18.20;;;;;;;14.04;73.19;93216.81;5014362;28;20073;-80
2023/10/20 09:45:17;;;;;;;26.00;19.08;;;;;;;13.99;73.78;93234.19;5013700;28;20140;-80
2023/10/20 09:47:51;;;;;;;25.45;19.88;;;;;;;13.98;73.84;93248.34;5013828;28;20111;-80
2023/10/20 09:50:23;;;;;;;22.35;18.67;;;;;;;14.00;74.01;93297.88;5013782;28;20066;-80
2023/10/20 09:52:51;;;;;;;24.25;20.90;;;;;;;14.04;73.98;93329.50;5013798;28;20501;-80
2023/10/20 09:55:21;;;;;;;24.02;18.65;;;;;;;14.10;74.13;93381.59;5013671;28;20054;-80
2023/10/20 09:57:50;;;;;;;23.23;17.05;;;;;;;14.17;73.88;93402.22;5013650;28;20103;-80
2023/10/20 10:00:30;;;;;;;23.88;18.73;;;;;;;14.26;74.27;93379.53;5022688;28;20053;-80
2023/10/20 10:02:59;;;;;;;24.10;18.52;;;;;;;14.32;73.38;93399.38;5034506;28;20493;-80
2023/10/20 10:05:30;;;;;;;22.83;17.02;;;;;;;14.39;73.00;93399.81;5035287;28;20050;-79
2023/10/20 10:08:07;;;;;;;19.58;16.23;;;;;;;14.48;72.87;93399.94;5017650;28;20074;-80
2023/10/20 10:10:35;;;;;;;20.92;16.95;;;;;;;14.59;73.49;93413.72;5015227;28;20468;-79
2023/10/20 10:13:05;;;;;;;24.63;20.23;;;;;;;14.67;72.14;93438.53;5014397;28;20050;-80
2023/10/20 10:15:39;;;;;;;24.10;20.13;;;;;;;14.72;72.62;93428.75;5014536;28;20441;-80
2023/10/20 10:18:09;;;;;;;28.25;20.75;;;;;;;14.87;72.42;93450.56;5013814;28;20081;-79
2023/10/20 10:20:45;;;;;;;22.85;19.33;;;;;;;15.32;71.40;93435.16;5032295;28;20053;-79
2023/10/20 10:23:14;;;;;;;22.10;19.40;;;;;;;15.73;69.82;93427.38;5034453;28;20054;-80
2023/10/20 10:25:43;;;;;;;22.58;18.85;;;;;;;15.88;69.00;93399.25;5034105;28;20050;-80
2023/10/20 10:28:12;;;;;;;20.65;18.45;;;;;;;15.88;69.64;93423.69;5015496;28;20102;-80
2023/10/20 10:30:43;;;;;;;21.67;18.75;;;;;;;15.83;68.50;93435.06;5013910;28;20134;-80
2023/10/20 10:33:12;;;;;;;22.15;18.23;;;;;;;15.79;68.44;93433.31;5014356;28;20505;-80
2023/10/20 10:35:41;;;;;;;21.73;18.55;;;;;;;15.78;68.79;93423.88;5015844;28;20054;-80
2023/10/20 10:38:18;;;;;;;21.92;18.08;;;;;;;16.40;66.74;93399.75;5013334;28;20046;-80
2023/10/20 10:40:47;;;;;;;22.73;19.20;;;;;;;16.69;65.43;93392.25;5013842;28;20136;-80
2023/10/20 10:43:18;;;;;;;22.98;19.33;;;;;;;16.67;65.30;93410.19;5013365;28;20462;-80
2023/10/20 10:45:46;;;;;;;20.55;17.85;;;;;;;16.70;65.29;93414.06;5012800;28;20069;-80
2023/10/20 10:48:14;;;;;;;19.13;16.98;;;;;;;16.66;66.54;93402.59;5012995;28;20046;-80
2023/10/20 10:50:44;;;;;;;20.40;18.27;;;;;;;16.57;65.83;93420.94;5013769;28;20096;-80
2023/10/20 10:53:16;;;;;;;23.00;18.38;;;;;;;16.48;65.96;93420.09;5013820;28;20056;-80
2023/10/20 10:55:44;;;;;;;19.02;16.20;;;;;;;16.46;67.31;93427.50;5012558;28;20526;-81
2023/10/20 10:58:13;;;;;;;19.00;16.55;;;;;;;16.46;66.77;93433.56;5012626;28;20128;-81
2023/10/20 11:00:43;;;;;;;19.60;17.48;;;;;;;16.60;66.72;93435.38;5013013;28;20085;-80
2023/10/20 11:03:13;;;;;;;21.70;17.25;;;;;;;17.11;65.34;93426.34;5012739;28;20056;-81
2023/10/20 11:05:43;;;;;;;26.33;18.90;;;;;;;17.76;63.73;93443.44;5012411;28;20053;-80
2023/10/20 11:08:11;;;;;;;20.77;16.48;;;;;;;18.02;62.68;93451.47;5013076;28;20076;-79
2023/10/20 11:10:43;;;;;;;19.35;15.98;;;;;;;18.03;62.99;93454.88;5013078;28;20421;-80
2023/10/20 11:13:13;;;;;;;17.48;14.80;;;;;;;18.05;61.84;93448.22;5012981;28;20056;-81
2023/10/20 11:15:41;;;;;;;18.25;15.45;;;;;;;18.12;61.60;93461.72;5012627;28;20042;-80
2023/10/20 11:18:10;;;;;;;15.77;13.15;;;;;;;18.21;61.45;93458.34;5013494;28;20058;-80
2023/10/20 11:20:41;;;;;;;14.55;13.13;;;;;;;18.47;60.94;93466.31;5013597;28;20046;-80
2023/10/20 11:23:12;;;;;;;14.10;11.32;;;;;;;18.78;60.08;93481.31;5013059;28;20100;-80
2023/10/20 11:25:41;;;;;;;10.20;8.50;;;;;;;18.85;59.77;93466.56;5012801;28;20054;-80
2023/10/20 11:28:09;;;;;;;9.90;8.90;;;;;;;18.80;59.74;93468.56;5012574;28;20484;-80
2023/10/20 11:30:38;;;;;;;8.23;7.40;;;;;;;18.72;59.61;93501.78;5013196;28;20050;-80
2023/10/20 11:33:08;;;;;;;6.78;6.13;;;;;;;18.87;59.55;93496.09;5013026;28;20053;-80
2023/10/20 11:35:39;;;;;;;6.10;5.57;;;;;;;19.00;58.86;93480.38;5029695;28;20068;-78
2023/10/20 11:38:07;;;;;;;8.57;5.70;;;;;;;19.08;58.70;93469.03;5036607;28;20098;-79
2023/10/20 11:40:36;;;;;;;10.18;7.95;;;;;;;19.09;58.38;93470.63;5036234;28;20061;-79
2023/10/20 11:43:04;;;;;;;9.60;7.20;;;;;;;19.09;58.76;93470.63;5025786;28;20077;-80
2023/10/20 11:45:32;;;;;;;7.20;6.53;;;;;;;19.07;58.91;93467.50;5016522;28;20081;-80
2023/10/20 11:48:00;;;;;;;8.80;7.38;;;;;;;19.06;59.25;93471.22;5016616;28;20089;-80
2023/10/20 11:50:28;;;;;;;13.32;9.82;;;;;;;18.98;59.55;93467.50;5016471;28;20567;-80
2023/10/20 11:52:55;;;;;;;11.93;8.85;;;;;;;18.85;60.59;93477.13;5016465;28;20111;-79